Time;durP1;ratioP1;P1;durP2;ratioP2;P2;SDS_P1;SDS_P2;PMS_P1;PMS_P2;Temp;Humidity;BMP_temperature;BMP_pressure;BME280_temperature;BME280_humidity;BME280_pressure;Samples;Min_cycle;Max_cycle;Signal;HPM_P1;HPM_P2
2023/01/27 00:00:14;;;;;;;11.52;4.10;;;;;;;3.25;100.00;102664.72;4972813;28;20069;-74
2023/01/27 00:02:40;;;;;;;7.55;4.78;;;;;;;3.24;100.00;102669.09;5007054;28;20036;-73
2023/01/27 00:05:07;;;;;;;12.63;4.60;;;;;;;3.24;100.00;102673.44;4963388;28;20104;-73
2023/01/27 00:07:32;;;;;;;9.90;5.00;;;;;;;3.23;100.00;102669.91;5010227;28;20049;-73
2023/01/27 00:09:58;;;;;;;11.80;5.40;;;;;;;3.23;100.00;102671.66;5007675;28;20049;-73
2023/01/27 00:15:11;;;;;;;12.93;5.07;;;;;;;3.23;100.00;102676.91;4976184;28;20564;-73
2023/01/27 00:17:37;;;;;;;8.38;4.75;;;;;;;3.20;100.00;102674.22;4976298;28;20137;-73
2023/01/27 00:20:04;;;;;;;8.43;4.80;;;;;;;3.17;100.00;102671.56;4990913;28;20038;-73
2023/01/27 00:25:14;;;;;;;8.18;4.03;;;;;;;3.09;100.00;102688.06;4986041;28;20037;-73
2023/01/27 00:27:40;;;;;;;9.70;4.60;;;;;;;3.05;100.00;102686.22;5001573;28;21536;-73
2023/01/27 00:30:06;;;;;;;5.90;3.47;;;;;;;3.00;100.00;102693.16;4970610;28;21648;-73
2023/01/27 00:35:16;;;;;;;5.82;3.63;;;;;;;2.88;100.00;102685.09;4972938;28;21780;-73
2023/01/27 00:37:42;;;;;;;8.35;3.88;;;;;;;2.81;100.00;102703.31;4984192;28;20035;-74
2023/01/27 00:40:09;;;;;;;7.78;4.25;;;;;;;2.79;100.00;102709.38;4990019;28;20116;-73
2023/01/27 00:42:35;;;;;;;10.43;4.50;;;;;;;2.75;100.00;102703.19;4989265;28;20100;-73
2023/01/27 00:47:47;;;;;;;7.28;4.13;;;;;;;2.72;100.00;102708.34;4972265;28;20277;-74
2023/01/27 00:50:12;;;;;;;7.53;4.50;;;;;;;2.69;100.00;102701.38;4985260;28;20066;-74
2023/01/27 00:52:38;;;;;;;7.07;4.47;;;;;;;2.70;100.00;102715.31;4969177;28;20076;-73
2023/01/27 00:55:05;;;;;;;12.00;4.63;;;;;;;2.69;100.00;102710.94;4972145;28;20043;-73
2023/01/27 00:57:30;;;;;;;9.23;4.50;;;;;;;2.67;100.00;102716.13;4969281;28;20030;-74
2023/01/27 00:59:56;;;;;;;8.50;4.47;;;;;;;2.67;100.00;102708.28;4970162;28;20245;-73
2023/01/27 01:02:21;;;;;;;9.45;5.20;;;;;;;2.68;100.00;102698.72;4971927;28;20042;-74
2023/01/27 01:04:47;;;;;;;7.72;4.13;;;;;;;2.69;100.00;102713.56;4969928;28;20030;-74
2023/01/27 01:07:13;;;;;;;9.13;4.38;;;;;;;2.67;100.00;102710.91;4970017;28;20105;-72
2023/01/27 01:09:38;;;;;;;9.50;4.53;;;;;;;2.67;100.00;102716.13;4971227;28;20811;-72
2023/01/27 01:12:04;;;;;;;9.10;4.20;;;;;;;2.68;100.00;102709.19;4968583;28;20933;-72
2023/01/27 01:14:29;;;;;;;8.25;4.25;;;;;;;2.67;100.00;102710.91;4976232;28;20026;-72
2023/01/27 01:16:55;;;;;;;4.95;3.67;;;;;;;2.67;100.00;102715.28;4970193;28;20528;-73
2023/01/27 01:19:21;;;;;;;8.73;4.45;;;;;;;2.67;100.00;102718.75;4971071;28;20076;-73
2023/01/27 01:21:46;;;;;;;6.22;3.67;;;;;;;2.68;100.00;102727.50;5002986;28;20033;-73
2023/01/27 01:24:12;;;;;;;5.65;3.42;;;;;;;2.69;100.00;102722.28;4971549;28;20367;-72
2023/01/27 01:26:37;;;;;;;6.13;3.35;;;;;;;2.70;100.00;102720.53;4968694;28;20092;-73
2023/01/27 01:29:03;;;;;;;8.82;4.15;;;;;;;2.69;100.00;102724.03;4970715;28;20053;-72
2023/01/27 01:31:28;;;;;;;8.25;4.40;;;;;;;2.68;100.00;102724.88;4971283;28;20041;-74
2023/01/27 01:33:54;;;;;;;6.43;3.50;;;;;;;2.67;100.00;102725.72;4974046;28;20090;-72
2023/01/27 01:36:20;;;;;;;7.03;4.07;;;;;;;2.66;100.00;102726.59;4992527;28;20685;-73
2023/01/27 01:38:45;;;;;;;6.68;3.78;;;;;;;2.64;100.00;102723.03;5007858;28;20072;-72
2023/01/27 01:41:15;;;;;;;8.32;4.38;;;;;;;2.63;100.00;102724.81;4974313;28;20030;-72
2023/01/27 01:43:40;;;;;;;6.20;3.60;;;;;;;2.63;100.00;102729.13;4973580;28;20029;-72
2023/01/27 01:46:08;;;;;;;8.15;4.30;;;;;;;2.63;100.00;102743.09;4969233;28;21630;-72
2023/01/27 01:48:53;;;;;;;7.55;3.80;;;;;;;2.62;100.00;102738.69;4985971;28;20037;-72
2023/01/27 01:51:26;;;;;;;9.85;4.05;;;;;;;2.62;100.00;102743.06;4971099;28;20734;-72
2023/01/27 01:54:02;;;;;;;9.63;4.40;;;;;;;2.61;100.00;102750.03;4973340;28;20117;-72
2023/01/27 01:56:36;;;;;;;8.43;4.50;;;;;;;2.60;100.00;102739.56;5006487;28;20034;-73
2023/01/27 01:59:08;;;;;;;7.90;4.00;;;;;;;2.55;100.00;102732.50;4973898;28;20032;-73
2023/01/27 02:01:34;;;;;;;7.28;4.10;;;;;;;2.54;100.00;102745.53;4976842;28;20507;-73
2023/01/27 02:04:02;;;;;;;7.22;3.88;;;;;;;2.51;100.00;102741.13;4971592;28;20069;-72
2023/01/27 02:06:28;;;;;;;6.53;4.18;;;;;;;2.50;100.00;102744.59;4985570;28;21599;-73
2023/01/27 02:08:54;;;;;;;9.52;3.30;;;;;;;2.50;100.00;102744.59;4968273;28;20042;-72
2023/01/27 02:11:19;;;;;;;8.35;3.65;;;;;;;2.51;100.00;102746.34;4985345;28;20037;-73
2023/01/27 02:13:45;;;;;;;7.05;3.25;;;;;;;2.51;100.00;102748.09;4985979;28;20080;-72
2023/01/27 02:16:12;;;;;;;5.68;3.50;;;;;;;2.51;100.00;102754.19;4973037;28;20041;-72
2023/01/27 02:18:39;;;;;;;6.72;3.70;;;;;;;2.52;100.00;102742.91;4978012;28;20046;-72
2023/01/27 02:21:05;;;;;;;7.75;3.90;;;;;;;2.51;100.00;102750.72;4999524;28;20281;-72
2023/01/27 02:23:33;;;;;;;4.63;3.20;;;;;;;2.51;100.00;102746.34;4973163;28;20187;-72
2023/01/27 02:26:10;;;;;;;8.95;3.65;;;;;;;2.50;100.00;102755.06;4968152;28;20549;-72
2023/01/27 02:28:36;;;;;;;9.60;4.00;;;;;;;2.50;100.00;102755.06;4971449;28;20042;-72
2023/01/27 02:31:01;;;;;;;6.57;3.22;;;;;;;2.48;100.00;102751.53;4993510;28;20516;-72
2023/01/27 02:33:27;;;;;;;6.03;3.33;;;;;;;2.49;100.00;102747.16;4990997;28;20034;-72
2023/01/27 02:36:05;;;;;;;5.95;3.08;;;;;;;2.49;100.00;102753.28;4974781;28;20073;-72
2023/01/27 02:38:37;;;;;;;6.43;3.40;;;;;;;2.49;100.00;102747.16;4977947;28;20119;-73
2023/01/27 02:41:19;;;;;;;6.00;3.17;;;;;;;2.48;100.00;102746.31;4973099;28;21680;-72
2023/01/27 02:43:47;;;;;;;5.40;3.20;;;;;;;2.45;100.00;102751.47;4999128;28;20107;-73
2023/01/27 02:46:13;;;;;;;5.93;3.30;;;;;;;2.44;100.00;102747.97;4971540;28;21710;-73
2023/01/27 02:48:38;;;;;;;5.25;2.97;;;;;;;2.43;100.00;102750.56;4977477;28;20486;-73
2023/01/27 02:51:04;;;;;;;9.07;2.50;;;;;;;2.42;100.00;102749.69;4974897;28;20389;-72
2023/01/27 02:53:30;;;;;;;5.22;2.65;;;;;;;2.42;100.00;102740.97;4973879;28;20117;-72
2023/01/27 02:55:55;;;;;;;6.07;2.47;;;;;;;2.43;100.00;102751.47;4974856;28;20711;-72
2023/01/27 02:58:21;;;;;;;2.72;1.90;;;;;;;2.46;100.00;102758.47;4975158;28;20032;-72
2023/01/27 03:00:47;;;;;;;3.22;2.00;;;;;;;2.48;100.00;102745.41;4970345;28;20108;-72
2023/01/27 03:03:12;;;;;;;5.97;1.83;;;;;;;2.48;100.00;102748.03;4972413;28;20608;-74
2023/01/27 03:05:38;;;;;;;4.07;1.80;;;;;;;2.45;100.00;102748.84;4981140;28;20625;-72
2023/01/27 03:08:04;;;;;;;4.47;1.92;;;;;;;2.44;100.00;102754.94;4972357;28;20042;-72
2023/01/27 03:10:29;;;;;;;4.75;1.80;;;;;;;2.43;100.00;102754.06;4980184;28;20066;-71
2023/01/27 03:12:55;;;;;;;5.15;1.90;;;;;;;2.42;100.00;102767.09;4971514;28;20069;-74
2023/01/27 03:18:15;;;;;;;1.70;1.45;;;;;;;2.43;100.00;102769.75;4973722;28;20485;-74
2023/01/27 03:20:45;;;;;;;3.38;1.58;;;;;;;2.46;100.00;102774.16;5003704;28;20065;-73
2023/01/27 03:23:12;;;;;;;4.10;1.70;;;;;;;2.46;100.00;102770.66;5004386;28;20531;-74
2023/01/27 03:25:46;;;;;;;4.07;1.90;;;;;;;2.47;100.00;102768.09;4973090;28;20503;-73
2023/01/27 03:28:12;;;;;;;2.10;1.60;;;;;;;2.46;100.00;102766.31;5001903;28;20042;-73
2023/01/27 03:30:38;;;;;;;2.83;1.60;;;;;;;2.45;100.00;102775.00;4968297;28;20045;-73
2023/01/27 03:33:05;;;;;;;3.53;1.80;;;;;;;2.44;100.00;102768.91;4972744;28;20492;-73
2023/01/27 03:35:33;;;;;;;3.10;1.42;;;;;;;2.45;100.00;102777.59;4956527;28;20157;-73
2023/01/27 03:46:17;;;;;;;1.13;1.00;;;;;;;2.46;100.00;102789.84;4973497;28;20045;-72
2023/01/27 03:48:51;;;;;;;1.27;1.00;;;;;;;2.44;100.00;102802.00;5000136;28;20125;-72
2023/01/27 03:51:16;;;;;;;;;;;;;;;2.42;100.00;102798.47;4975148;28;20566;-74
2023/01/27 03:53:42;;;;;;;1.60;1.50;;;;;;;2.41;100.00;102792.34;5005566;28;19922;-74
2023/01/27 03:56:08;;;;;;;1.63;1.10;;;;;;;2.42;100.00;102803.72;4976853;28;20046;-72
2023/01/27 03:58:35;;;;;;;2.65;1.30;;;;;;;2.40;100.00;102805.41;4972684;28;20121;-72
2023/01/27 04:01:06;;;;;;;2.67;0.95;;;;;;;2.41;100.00;102807.19;5005700;28;20044;-73
2023/01/27 04:09:06;;;;;;;1.00;0.90;;;;;;;2.41;100.00;102810.66;4967638;28;20050;-74
2023/01/27 04:14:16;;;;;;;2.22;1.20;;;;;;;2.37;100.00;102810.56;4974759;28;20042;-74
2023/01/27 04:16:42;;;;;;;1.55;1.23;;;;;;;2.33;100.00;102819.22;4973811;28;20092;-74
2023/01/27 04:19:09;;;;;;;1.52;0.90;;;;;;;2.28;100.00;102812.16;4987589;28;20038;-74
2023/01/27 04:21:35;;;;;;;3.22;1.13;;;;;;;2.23;100.00;102808.56;5005624;28;20039;-74
2023/01/27 04:24:00;;;;;;;1.95;1.17;;;;;;;2.20;100.00;102807.59;4974806;28;20045;-74
2023/01/27 04:26:33;;;;;;;1.10;1.00;;;;;;;2.19;100.00;102811.06;4977629;28;20029;-74
2023/01/27 04:29:02;;;;;;;1.45;0.98;;;;;;;2.17;100.00;102808.41;4974482;28;20500;-74
2023/01/27 04:31:28;;;;;;;2.33;1.00;;;;;;;2.15;100.00;102810.13;4974598;28;20041;-74
2023/01/27 04:33:54;;;;;;;1.55;1.10;;;;;;;2.15;100.00;102813.63;4974508;28;20045;-73
2023/01/27 04:36:19;;;;;;;1.20;1.10;;;;;;;2.17;100.00;102824.09;4977110;28;20101;-74
2023/01/27 04:38:45;;;;;;;1.10;1.00;;;;;;;2.16;100.00;102815.41;5005884;28;20077;-74
2023/01/27 04:41:11;;;;;;;3.10;1.20;;;;;;;2.15;100.00;102818.88;4972442;28;20046;-73
2023/01/27 04:43:36;;;;;;;2.03;1.20;;;;;;;2.15;100.00;102815.34;4974188;28;20116;-74
2023/01/27 04:46:02;;;;;;;1.25;1.10;;;;;;;2.15;100.00;102825.81;5004131;28;20122;-74
2023/01/27 04:48:28;;;;;;;1.42;1.02;;;;;;;2.12;100.00;102820.53;4974314;28;20606;-74
2023/01/27 04:50:53;;;;;;;3.55;1.30;;;;;;;2.09;100.00;102812.59;4972897;28;20057;-74
2023/01/27 04:53:19;;;;;;;1.90;1.20;;;;;;;2.06;100.00;102815.16;5005787;28;20322;-73
2023/01/27 04:55:47;;;;;;;1.65;1.30;;;;;;;2.03;100.00;102823.81;4975552;28;20578;-74
2023/01/27 04:58:14;;;;;;;2.85;1.40;;;;;;;2.02;100.00;102812.47;4975073;28;20042;-72
2023/01/27 05:00:39;;;;;;;1.70;1.50;;;;;;;2.00;100.00;102824.63;4972252;28;20402;-73
2023/01/27 05:03:05;;;;;;;1.80;1.48;;;;;;;2.00;100.00;102823.72;4971958;28;20069;-74
2023/01/27 05:05:31;;;;;;;3.78;1.70;;;;;;;1.99;100.00;102827.19;4975976;28;20626;-74
2023/01/27 05:08:04;;;;;;;1.75;1.50;;;;;;;1.99;100.00;102824.59;4976100;28;20446;-74
2023/01/27 05:10:30;;;;;;;1.90;1.80;;;;;;;1.97;100.00;102824.53;4972640;28;20042;-72
2023/01/27 05:12:56;;;;;;;2.35;2.00;;;;;;;1.98;100.00;102831.56;4976266;28;20041;-74
2023/01/27 05:15:22;;;;;;;2.33;2.13;;;;;;;1.96;100.00;102830.63;4971926;28;20038;-73
2023/01/27 05:17:47;;;;;;;4.45;2.33;;;;;;;1.96;100.00;102828.00;4973963;28;20030;-73
2023/01/27 05:20:13;;;;;;;2.53;1.80;;;;;;;1.96;100.00;102830.63;4991497;28;20044;-73
2023/01/27 05:22:38;;;;;;;4.30;2.28;;;;;;;1.96;100.00;102841.06;4969291;28;20065;-73
2023/01/27 05:25:04;;;;;;;2.08;1.85;;;;;;;1.97;100.00;102837.59;4989305;28;20042;-73
2023/01/27 05:27:30;;;;;;;1.95;1.83;;;;;;;1.96;100.00;102830.63;4973672;28;20042;-73
2023/01/27 05:29:56;;;;;;;4.72;1.60;;;;;;;1.95;100.00;102833.22;5005488;28;20274;-73
2023/01/27 05:32:21;;;;;;;1.50;1.40;;;;;;;1.94;100.00;102840.16;4971812;28;20034;-72
2023/01/27 05:34:47;;;;;;;3.15;1.45;;;;;;;1.93;100.00;102841.03;4977932;28;20042;-72
2023/01/27 05:37:12;;;;;;;2.83;1.40;;;;;;;1.91;100.00;102834.88;4968771;28;20076;-72
2023/01/27 05:39:38;;;;;;;1.60;1.30;;;;;;;1.92;100.00;102839.25;4975309;28;20038;-72
2023/01/27 05:42:04;;;;;;;1.25;1.23;;;;;;;1.91;100.00;102850.56;4974181;28;20057;-72
2023/01/27 05:44:29;;;;;;;1.75;1.10;;;;;;;1.93;100.00;102848.84;4998811;28;20627;-73
2023/01/27 05:46:55;;;;;;;1.42;1.30;;;;;;;1.90;100.00;102836.59;4970576;28;20377;-73
2023/01/27 05:49:20;;;;;;;2.20;1.30;;;;;;;1.89;100.00;102837.47;4974834;28;20044;-73
2023/01/27 05:51:46;;;;;;;2.28;1.25;;;;;;;1.88;100.00;102842.63;5007249;28;20041;-73
2023/01/27 05:54:12;;;;;;;1.80;1.40;;;;;;;1.85;100.00;102833.00;4976911;28;20389;-73
2023/01/27 05:56:38;;;;;;;2.83;1.35;;;;;;;1.83;100.00;102839.91;4973889;28;20544;-73
2023/01/27 05:59:03;;;;;;;1.20;1.17;;;;;;;1.83;100.00;102836.41;4976618;28;20176;-73
2023/01/27 06:01:31;;;;;;;2.15;1.40;;;;;;;1.81;100.00;102841.63;4973927;28;20038;-73
2023/01/27 06:03:57;;;;;;;2.08;1.15;;;;;;;1.81;100.00;102845.94;5005855;28;20133;-73
2023/01/27 06:06:24;;;;;;;1.65;1.25;;;;;;;1.81;100.00;102846.84;4987378;28;20121;-73
2023/01/27 06:08:50;;;;;;;4.43;1.50;;;;;;;1.79;100.00;102835.47;4984757;28;20260;-72
2023/01/27 06:11:18;;;;;;;2.35;1.48;;;;;;;1.79;100.00;102842.44;4992992;28;20081;-73
2023/01/27 06:13:44;;;;;;;3.08;1.45;;;;;;;1.78;100.00;102838.94;4989536;28;20047;-73
2023/01/27 06:16:12;;;;;;;1.38;1.27;;;;;;;1.78;100.00;102836.31;4973196;28;20037;-73
2023/01/27 06:18:38;;;;;;;2.08;1.35;;;;;;;1.77;100.00;102837.16;4994569;28;20038;-72
2023/01/27 06:21:05;;;;;;;2.08;1.40;;;;;;;1.80;100.00;102846.81;4976890;28;20583;-73
2023/01/27 06:23:31;;;;;;;3.50;1.20;;;;;;;1.81;100.00;102851.19;5007744;28;20829;-73
2023/01/27 06:26:01;;;;;;;2.47;1.20;;;;;;;1.81;100.00;102846.84;4979330;28;20038;-73
2023/01/27 06:28:27;;;;;;;1.92;1.00;;;;;;;1.82;100.00;102842.50;4977676;28;20568;-72
2023/01/27 06:30:53;;;;;;;1.40;1.30;;;;;;;1.84;100.00;102852.13;4974509;28;20037;-73
2023/01/27 06:33:18;;;;;;;1.60;1.10;;;;;;;1.83;100.00;102857.31;4977350;28;20083;-72
2023/01/27 06:35:44;;;;;;;3.08;1.45;;;;;;;1.84;100.00;102859.06;4973621;28;20050;-73
2023/01/27 06:38:12;;;;;;;1.27;1.15;;;;;;;1.84;100.00;102859.06;4979652;28;20568;-72
2023/01/27 06:40:37;;;;;;;1.45;1.20;;;;;;;1.84;100.00;102878.25;4976076;28;20041;-72
2023/01/27 06:43:03;;;;;;;1.92;1.42;;;;;;;1.83;100.00;102871.28;4982445;28;20069;-72
2023/01/27 06:45:29;;;;;;;2.25;1.02;;;;;;;1.84;100.00;102879.97;4981896;28;20910;-72
2023/01/27 06:47:59;;;;;;;1.02;0.93;;;;;;;1.83;100.00;102881.72;4981476;28;20458;-72
2023/01/27 06:50:27;;;;;;;3.65;1.20;;;;;;;1.83;100.00;102875.59;4975986;28;20394;-72
2023/01/27 06:52:54;;;;;;;1.60;1.30;;;;;;;1.82;100.00;102882.56;4976389;28;20113;-72
2023/01/27 06:55:20;;;;;;;1.13;1.02;;;;;;;1.84;100.00;102890.41;4985731;28;20188;-74
2023/01/27 06:57:48;;;;;;;1.70;1.17;;;;;;;1.82;100.00;102890.41;4977330;28;20045;-74
2023/01/27 07:00:15;;;;;;;1.10;1.00;;;;;;;1.84;100.00;102887.81;4974127;28;20049;-72
2023/01/27 07:02:42;;;;;;;1.00;0.98;;;;;;;1.83;100.00;102892.16;5007980;28;20035;-73
2023/01/27 07:05:08;;;;;;;1.70;1.10;;;;;;;1.84;100.00;102886.09;5010803;28;20052;-72
2023/01/27 07:07:33;;;;;;;1.65;0.93;;;;;;;1.85;100.00;102889.59;4974090;28;20503;-72
2023/01/27 07:09:59;;;;;;;3.97;1.10;;;;;;;1.85;100.00;102894.81;4990057;28;20340;-72
2023/01/27 07:12:25;;;;;;;1.20;1.10;;;;;;;1.84;100.00;102893.94;4978341;28;20125;-73
2023/01/27 07:14:50;;;;;;;1.05;1.00;;;;;;;1.85;100.00;102890.47;4974977;28;20331;-72
2023/01/27 07:17:16;;;;;;;2.20;1.08;;;;;;;1.85;100.00;102894.81;4972926;28;20084;-73
2023/01/27 07:19:41;;;;;;;1.10;1.00;;;;;;;1.85;100.00;102894.81;5008071;28;20335;-73
2023/01/27 07:22:07;;;;;;;2.25;1.45;;;;;;;1.85;100.00;102887.84;4972168;28;20692;-72
2023/01/27 07:24:32;;;;;;;4.22;1.00;;;;;;;1.86;100.00;102897.44;4975313;28;20389;-72
2023/01/27 07:26:58;;;;;;;2.42;0.90;;;;;;;1.86;100.00;102907.91;4975095;28;20390;-72
2023/01/27 07:29:24;;;;;;;1.00;1.00;;;;;;;1.87;100.00;102906.19;4974870;28;20436;-73
2023/01/27 07:31:49;;;;;;;1.15;0.77;;;;;;;1.88;100.00;102903.63;4988435;28;20041;-72
2023/01/27 07:34:15;;;;;;;1.08;0.88;;;;;;;1.89;100.00;102901.88;4976858;28;20062;-73
2023/01/27 07:36:40;;;;;;;1.13;0.73;;;;;;;1.89;100.00;102914.94;4993844;28;20120;-73
2023/01/27 07:39:06;;;;;;;1.00;0.98;;;;;;;1.89;100.00;102915.84;4977709;28;20538;-72
2023/01/27 07:41:31;;;;;;;2.47;1.33;;;;;;;1.90;100.00;102927.16;4972889;28;20401;-73
2023/01/27 07:43:57;;;;;;;1.40;1.17;;;;;;;1.90;100.00;102932.38;4977091;28;20116;-72
2023/01/27 07:46:22;;;;;;;2.78;0.95;;;;;;;1.90;100.00;102924.53;4973895;28;20044;-72
2023/01/27 07:48:48;;;;;;;3.28;0.90;;;;;;;1.90;100.00;102934.97;4975389;28;20366;-72
2023/01/27 07:51:14;;;;;;;1.23;1.13;;;;;;;1.90;100.00;102932.38;4968710;28;20045;-72
2023/01/27 07:53:40;;;;;;;2.03;0.82;;;;;;;1.93;100.00;102931.56;4950483;28;20030;-73
2023/01/27 07:56:10;;;;;;;0.95;0.93;;;;;;;1.95;100.00;102928.16;5000425;28;20960;-72
2023/01/27 07:58:41;;;;;;;2.45;1.30;;;;;;;1.95;100.00;102928.16;4967240;28;20524;-72
2023/01/27 08:01:08;;;;;;;3.35;1.10;;;;;;;1.95;100.00;102930.75;4969734;28;20292;-72
2023/01/27 08:03:34;;;;;;;1.10;1.10;;;;;;;1.95;100.00;102935.13;4971916;28;20030;-72
2023/01/27 08:06:08;;;;;;;1.33;1.10;;;;;;;1.94;100.00;102942.06;4975429;28;21702;-72
2023/01/27 08:08:34;;;;;;;1.75;1.10;;;;;;;1.95;100.00;102940.34;4971183;28;20042;-73
2023/01/27 08:11:01;;;;;;;2.35;1.33;;;;;;;1.94;100.00;102934.22;4974731;28;20060;-71
2023/01/27 08:13:27;;;;;;;6.00;2.00;;;;;;;1.95;100.00;102932.50;4969644;28;20070;-72
2023/01/27 08:15:59;;;;;;;3.40;1.45;;;;;;;1.95;100.00;102941.22;4970837;28;20039;-72
2023/01/27 08:18:26;;;;;;;1.20;1.10;;;;;;;1.98;100.00;102937.78;4987483;28;20025;-73
2023/01/27 08:20:53;;;;;;;2.63;1.63;;;;;;;1.99;100.00;102948.28;4981445;28;20497;-73
2023/01/27 08:23:22;;;;;;;2.22;1.30;;;;;;;2.00;100.00;102939.59;4986562;28;20734;-72
2023/01/27 08:25:57;;;;;;;1.35;1.25;;;;;;;2.01;100.00;102943.06;4984215;28;21657;-72
2023/01/27 08:28:24;;;;;;;2.67;1.30;;;;;;;2.01;100.00;102946.59;4969540;28;20045;-72
2023/01/27 08:30:50;;;;;;;2.40;1.23;;;;;;;2.01;100.00;102938.75;4970178;28;20390;-72
2023/01/27 08:33:20;;;;;;;2.03;1.15;;;;;;;2.02;100.00;102950.97;5002724;28;20036;-73
2023/01/27 08:35:46;;;;;;;2.00;1.13;;;;;;;2.03;100.00;102957.94;4970483;28;20510;-71
2023/01/27 08:38:13;;;;;;;2.70;1.30;;;;;;;2.03;100.00;102950.09;4967233;28;20038;-71
2023/01/27 08:40:39;;;;;;;1.50;1.23;;;;;;;2.03;100.00;102957.94;4971527;28;20900;-72
2023/01/27 08:43:06;;;;;;;2.03;1.00;;;;;;;2.04;100.00;102953.63;4979708;28;20042;-72
2023/01/27 08:45:32;;;;;;;1.23;1.08;;;;;;;2.06;100.00;102953.66;5004671;28;20033;-72
2023/01/27 08:47:58;;;;;;;1.10;0.93;;;;;;;2.07;100.00;102950.19;4972217;28;20030;-71
2023/01/27 08:50:23;;;;;;;0.90;0.90;;;;;;;2.08;100.00;102944.13;4974059;28;20472;-72
2023/01/27 08:52:49;;;;;;;1.00;1.00;;;;;;;2.08;100.00;102950.25;4970060;28;20534;-72
2023/01/27 08:55:14;;;;;;;0.80;0.80;;;;;;;2.11;100.00;102957.25;4961806;28;20050;-73
2023/01/27 08:57:40;;;;;;;2.17;1.10;;;;;;;2.15;100.00;102951.25;4964247;28;20039;-71
2023/01/27 09:00:07;;;;;;;0.80;0.80;;;;;;;2.17;100.00;102958.28;4964353;28;20504;-72
2023/01/27 09:02:32;;;;;;;1.08;0.90;;;;;;;2.20;100.00;102957.50;4965023;28;20026;-71
2023/01/27 09:04:58;;;;;;;0.85;0.85;;;;;;;2.22;100.00;102963.63;4999988;28;20042;-74
2023/01/27 09:07:23;;;;;;;2.03;0.73;;;;;;;2.23;100.00;102960.16;5004920;28;20026;-72
2023/01/27 09:09:49;;;;;;;1.13;0.70;;;;;;;2.24;100.00;102975.00;4983374;28;20588;-74
2023/01/27 09:12:15;;;;;;;0.70;0.70;;;;;;;2.25;100.00;102971.56;4972707;28;20085;-74
2023/01/27 09:14:41;;;;;;;0.73;0.73;;;;;;;2.28;100.00;102970.72;4989403;28;20034;-74
2023/01/27 09:17:06;;;;;;;1.10;0.95;;;;;;;2.30;100.00;102977.75;4973254;28;20046;-72
2023/01/27 09:19:32;;;;;;;0.70;0.70;;;;;;;2.31;100.00;102983.88;4977650;28;20723;-74
2023/01/27 09:21:57;;;;;;;1.52;0.82;;;;;;;2.32;100.00;102983.03;4977102;28;20136;-74
2023/01/27 09:24:23;;;;;;;0.77;0.77;;;;;;;2.31;100.00;102979.50;4993099;28;20054;-75
2023/01/27 09:26:49;;;;;;;0.93;0.90;;;;;;;2.33;100.00;102986.53;5004923;28;20046;-75
2023/01/27 09:29:14;;;;;;;2.22;1.00;;;;;;;2.33;100.00;102986.53;4972734;28;20042;-75
2023/01/27 09:31:40;;;;;;;0.85;0.85;;;;;;;2.35;100.00;102988.34;4988125;28;20181;-74
2023/01/27 09:34:05;;;;;;;1.13;0.98;;;;;;;2.35;100.00;102984.84;4973686;28;20412;-73
2023/01/27 09:36:32;;;;;;;2.15;0.80;;;;;;;2.35;100.00;102987.44;4974910;28;20026;-73
2023/01/27 09:39:04;;;;;;;2.60;0.90;;;;;;;2.36;100.00;102987.50;4963399;28;21977;-72
2023/01/27 09:41:52;;;;;;;1.13;0.90;;;;;;;2.37;100.00;102988.34;4970804;28;20129;-74
2023/01/27 09:44:31;;;;;;;1.02;0.90;;;;;;;2.39;100.00;102981.44;4962045;28;20046;-72
2023/01/27 09:47:06;;;;;;;0.82;0.82;;;;;;;2.40;100.00;102978.00;4968555;28;20065;-73
2023/01/27 09:50:07;;;;;;;1.10;0.70;;;;;;;2.42;100.00;102989.34;4975582;28;20119;-73
2023/01/27 09:52:49;;;;;;;4.25;1.00;;;;;;;2.44;100.00;102985.94;4923254;28;20055;-73
2023/01/27 09:55:33;;;;;;;2.13;1.30;;;;;;;2.48;100.00;102979.03;4965692;28;20054;-74
2023/01/27 09:58:16;;;;;;;2.80;1.33;;;;;;;2.49;100.00;102983.41;4978834;28;20037;-75
2023/01/27 10:00:59;;;;;;;6.32;1.77;;;;;;;2.49;100.00;102983.41;4972536;28;20064;-73
2023/01/27 10:04:16;;;;;;;1.52;1.10;;;;;;;2.52;100.00;102993.97;4973952;28;20038;-74
2023/01/27 10:06:47;;;;;;;2.63;0.80;;;;;;;2.54;100.00;102992.25;4968966;28;20359;-73
2023/01/27 10:09:34;;;;;;;4.10;1.15;;;;;;;2.55;100.00;102983.56;4974040;28;20275;-73
2023/01/27 10:12:09;;;;;;;1.42;1.25;;;;;;;2.56;100.00;102987.94;4975257;28;20042;-72
2023/01/27 10:14:57;;;;;;;1.10;1.00;;;;;;;2.58;100.00;102987.97;4975549;28;20030;-72
2023/01/27 10:17:26;;;;;;;0.80;0.80;;;;;;;2.58;100.00;102986.22;4973736;28;20394;-72
2023/01/27 10:20:25;;;;;;;1.83;1.05;;;;;;;2.58;100.00;102981.00;5004939;28;20033;-72
2023/01/27 10:23:08;;;;;;;2.13;1.10;;;;;;;2.61;100.00;102981.94;4973253;28;20045;-72
2023/01/27 10:25:52;;;;;;;1.27;1.00;;;;;;;2.63;100.00;102985.47;4989811;28;20050;-73
2023/01/27 10:28:23;;;;;;;3.97;1.10;;;;;;;2.64;100.00;102988.13;4975058;28;20042;-74
2023/01/27 10:31:02;;;;;;;1.75;1.08;;;;;;;2.66;100.00;102990.78;4974819;28;20046;-72
2023/01/27 10:33:54;;;;;;;1.95;1.02;;;;;;;2.68;100.00;102994.31;4995902;28;20060;-73
2023/01/27 10:37:03;;;;;;;0.93;0.93;;;;;;;2.71;100.00;102986.50;4980106;28;20476;-73
2023/01/27 10:39:40;;;;;;;2.50;1.00;;;;;;;2.74;100.00;102989.19;4972545;28;20047;-73
2023/01/27 10:42:30;;;;;;;2.10;1.15;;;;;;;2.78;100.00;102990.16;4972911;28;20038;-73
2023/01/27 10:45:10;;;;;;;2.38;1.10;;;;;;;2.80;100.00;102988.44;5004462;28;20389;-72
2023/01/27 10:47:55;;;;;;;9.02;1.27;;;;;;;2.83;100.00;102988.53;4972491;28;20030;-73
2023/01/27 10:50:49;;;;;;;4.20;1.23;;;;;;;2.84;100.00;102985.91;4972328;28;20065;-73
2023/01/27 10:53:19;;;;;;;2.47;1.00;;;;;;;2.88;100.00;102986.00;4970833;28;20046;-73
2023/01/27 10:56:08;;;;;;;2.28;1.00;;;;;;;2.88;100.00;102993.84;4973521;28;20057;-73
2023/01/27 10:59:01;;;;;;;1.65;1.23;;;;;;;2.90;100.00;102987.81;4993196;28;20038;-74
2023/01/27 11:01:35;;;;;;;1.30;1.20;;;;;;;2.92;100.00;102985.19;4964263;28;20045;-74
2023/01/27 11:04:11;;;;;;;2.75;1.50;;;;;;;2.91;100.00;102989.56;4998499;28;20241;-73
2023/01/27 11:06:39;;;;;;;0.70;0.70;;;;;;;2.95;100.00;102988.75;4994628;28;20760;-74
2023/01/27 11:09:44;;;;;;;0.60;0.60;;;;;;;2.99;100.00;102985.38;4963794;28;20433;-73
2023/01/27 11:12:12;;;;;;;0.70;0.70;;;;;;;3.01;100.00;102980.16;4991914;28;20057;-74
2023/01/27 11:14:47;;;;;;;1.17;0.70;;;;;;;3.02;100.00;102968.84;4977790;28;22070;-74
2023/01/27 11:17:36;;;;;;;0.60;0.60;;;;;;;3.06;100.00;102965.41;4967654;28;20034;-74
2023/01/27 11:20:14;;;;;;;0.70;0.70;;;;;;;3.10;100.00;102964.66;4961229;28;20049;-74
2023/01/27 11:23:03;;;;;;;0.80;0.80;;;;;;;3.17;100.00;102967.38;4962636;28;20397;-74
2023/01/27 11:25:47;;;;;;;0.70;0.70;;;;;;;3.22;100.00;102968.38;4995410;28;20077;-74
2023/01/27 11:28:28;;;;;;;0.55;0.55;;;;;;;3.21;100.00;102969.22;4964327;28;20113;-75
2023/01/27 11:31:01;;;;;;;0.70;0.70;;;;;;;3.19;100.00;102970.91;4997267;28;20042;-74
2023/01/27 11:33:35;;;;;;;2.17;0.85;;;;;;;3.17;100.00;102967.38;4978441;28;20130;-74
2023/01/27 11:36:01;;;;;;;2.60;1.13;;;;;;;3.14;100.00;102972.56;4959529;28;20038;-74
2023/01/27 11:38:27;;;;;;;1.13;0.77;;;;;;;3.10;100.00;102964.66;4953043;28;20469;-74
2023/01/27 11:40:53;;;;;;;1.95;1.10;;;;;;;3.11;100.00;102969.03;4960590;28;20052;-74
2023/01/27 11:43:25;;;;;;;0.90;0.90;;;;;;;3.10;100.00;102974.22;4960140;28;20034;-74
2023/01/27 11:45:56;;;;;;;1.70;0.80;;;;;;;3.11;100.00;102969.03;4989982;28;20084;-74
2023/01/27 11:48:25;;;;;;;0.70;0.70;;;;;;;3.08;100.00;102968.97;4956301;28;20693;-73
2023/01/27 11:50:51;;;;;;;1.80;0.80;;;;;;;3.08;100.00;102963.75;4973853;28;20476;-74
2023/01/27 11:53:20;;;;;;;0.70;0.70;;;;;;;3.08;100.00;102966.34;4944932;28;20042;-74
2023/01/27 11:55:50;;;;;;;0.70;0.70;;;;;;;3.07;100.00;102964.59;4962071;28;20053;-74
2023/01/27 11:58:30;;;;;;;0.82;0.82;;;;;;;3.04;100.00;102969.75;4993171;28;20026;-74
2023/01/27 12:00:58;;;;;;;0.70;0.70;;;;;;;3.03;100.00;102969.72;4962591;28;20050;-74
2023/01/27 12:04:00;;;;;;;1.23;0.77;;;;;;;3.00;100.00;102962.72;4958338;28;20113;-74